sensor_id;sensor_type;location;lat;lon;timestamp;temperature;humidity
3053;DHT22;1536;51.098;6.414;2023-04-01T00:02:01;11.60;99.90
3053;DHT22;1536;51.098;6.414;2023-04-01T00:04:29;11.60;99.90
3053;DHT22;1536;51.098;6.414;2023-04-01T00:06:56;11.60;99.90
3053;DHT22;1536;51.098;6.414;2023-04-01T00:09:23;11.60;99.90
3053;DHT22;1536;51.098;6.414;2023-04-01T00:11:49;11.60;99.90
3053;DHT22;1536;51.098;6.414;2023-04-01T00:14:16;11.50;99.90
3053;DHT22;1536;51.098;6.414;2023-04-01T00:16:43;11.50;99.90
3053;DHT22;1536;51.098;6.414;2023-04-01T00:19:10;11.50;99.90
3053;DHT22;1536;51.098;6.414;2023-04-01T00:21:38;11.50;99.90
3053;DHT22;1536;51.098;6.414;2023-04-01T00:24:05;11.50;99.90
3053;DHT22;1536;51.098;6.414;2023-04-01T00:26:32;11.50;99.90
3053;DHT22;1536;51.098;6.414;2023-04-01T00:28:59;11.50;99.90
3053;DHT22;1536;51.098;6.414;2023-04-01T00:31:27;11.50;99.90
3053;DHT22;1536;51.098;6.414;2023-04-01T00:33:54;11.50;99.90
3053;DHT22;1536;51.098;6.414;2023-04-01T00:36:21;11.40;99.90
3053;DHT22;1536;51.098;6.414;2023-04-01T00:38:50;11.50;99.90
3053;DHT22;1536;51.098;6.414;2023-04-01T00:41:18;11.50;99.90
3053;DHT22;1536;51.098;6.414;2023-04-01T00:43:46;11.50;99.90
3053;DHT22;1536;51.098;6.414;2023-04-01T00:46:14;11.40;99.90
3053;DHT22;1536;51.098;6.414;2023-04-01T00:48:43;11.40;99.90
3053;DHT22;1536;51.098;6.414;2023-04-01T00:51:13;11.40;99.90
3053;DHT22;1536;51.098;6.414;2023-04-01T00:53:44;11.40;99.90
3053;DHT22;1536;51.098;6.414;2023-04-01T00:56:15;11.40;99.90
3053;DHT22;1536;51.098;6.414;2023-04-01T00:58:46;11.40;99.90
3053;DHT22;1536;51.098;6.414;2023-04-01T01:01:15;11.40;99.90
3053;DHT22;1536;51.098;6.414;2023-04-01T01:03:42;11.40;99.90
3053;DHT22;1536;51.098;6.414;2023-04-01T01:06:19;11.40;99.90
3053;DHT22;1536;51.098;6.414;2023-04-01T01:09:10;11.40;99.90
3053;DHT22;1536;51.098;6.414;2023-04-01T01:11:43;11.40;99.90
3053;DHT22;1536;51.098;6.414;2023-04-01T01:14:24;11.40;99.90
3053;DHT22;1536;51.098;6.414;2023-04-01T01:16:54;11.40;99.90
3053;DHT22;1536;51.098;6.414;2023-04-01T01:19:52;11.40;99.90
3053;DHT22;1536;51.098;6.414;2023-04-01T01:22:39;11.40;99.90
3053;DHT22;1536;51.098;6.414;2023-04-01T01:25:25;11.40;99.90
3053;DHT22;1536;51.098;6.414;2023-04-01T01:28:07;11.40;99.90
3053;DHT22;1536;51.098;6.414;2023-04-01T01:30:45;11.40;99.90
3053;DHT22;1536;51.098;6.414;2023-04-01T01:33:40;11.40;99.90
3053;DHT22;1536;51.098;6.414;2023-04-01T01:36:13;11.40;99.90
3053;DHT22;1536;51.098;6.414;2023-04-01T01:38:40;11.30;99.90
3053;DHT22;1536;51.098;6.414;2023-04-01T01:41:08;11.30;99.90
3053;DHT22;1536;51.098;6.414;2023-04-01T01:43:38;11.30;99.90
3053;DHT22;1536;51.098;6.414;2023-04-01T01:46:08;11.30;99.90
3053;DHT22;1536;51.098;6.414;2023-04-01T01:48:36;11.30;99.90
3053;DHT22;1536;51.098;6.414;2023-04-01T01:51:04;11.30;99.90
3053;DHT22;1536;51.098;6.414;2023-04-01T01:53:32;11.30;99.90
3053;DHT22;1536;51.098;6.414;2023-04-01T01:55:59;11.30;99.90
3053;DHT22;1536;51.098;6.414;2023-04-01T01:58:29;11.20;99.90
3053;DHT22;1536;51.098;6.414;2023-04-01T02:00:59;11.20;99.90
3053;DHT22;1536;51.098;6.414;2023-04-01T02:03:28;11.20;99.90
3053;DHT22;1536;51.098;6.414;2023-04-01T02:05:59;11.10;99.90
3053;DHT22;1536;51.098;6.414;2023-04-01T02:08:30;11.00;99.90
3053;DHT22;1536;51.098;6.414;2023-04-01T02:11:01;11.00;99.90
3053;DHT22;1536;51.098;6.414;2023-04-01T02:13:32;11.00;99.90
3053;DHT22;1536;51.098;6.414;2023-04-01T02:16:04;11.00;99.90
3053;DHT22;1536;51.098;6.414;2023-04-01T02:18:33;11.00;99.90
3053;DHT22;1536;51.098;6.414;2023-04-01T02:21:02;10.90;99.90
3053;DHT22;1536;51.098;6.414;2023-04-01T02:23:32;10.90;99.90
3053;DHT22;1536;51.098;6.414;2023-04-01T02:26:01;10.90;99.90
3053;DHT22;1536;51.098;6.414;2023-04-01T02:28:29;10.90;99.90
3053;DHT22;1536;51.098;6.414;2023-04-01T02:30:59;10.90;99.90
3053;DHT22;1536;51.098;6.414;2023-04-01T02:33:28;10.90;99.90
3053;DHT22;1536;51.098;6.414;2023-04-01T02:35:55;10.90;99.90
3053;DHT22;1536;51.098;6.414;2023-04-01T02:38:22;10.90;99.90
3053;DHT22;1536;51.098;6.414;2023-04-01T02:40:51;10.90;99.90
3053;DHT22;1536;51.098;6.414;2023-04-01T02:43:19;10.90;99.90
3053;DHT22;1536;51.098;6.414;2023-04-01T02:45:46;11.00;99.90
3053;DHT22;1536;51.098;6.414;2023-04-01T02:48:13;11.00;99.90
3053;DHT22;1536;51.098;6.414;2023-04-01T02:50:40;11.00;99.90
3053;DHT22;1536;51.098;6.414;2023-04-01T02:53:07;11.00;99.90
3053;DHT22;1536;51.098;6.414;2023-04-01T02:55:34;11.00;99.90
3053;DHT22;1536;51.098;6.414;2023-04-01T02:58:00;11.00;99.90
3053;DHT22;1536;51.098;6.414;2023-04-01T03:00:29;11.00;99.90
3053;DHT22;1536;51.098;6.414;2023-04-01T03:02:56;11.00;99.90
3053;DHT22;1536;51.098;6.414;2023-04-01T03:05:23;11.00;99.90
3053;DHT22;1536;51.098;6.414;2023-04-01T03:07:50;11.00;99.90
3053;DHT22;1536;51.098;6.414;2023-04-01T03:10:17;11.00;99.90
3053;DHT22;1536;51.098;6.414;2023-04-01T03:12:43;11.00;99.90
3053;DHT22;1536;51.098;6.414;2023-04-01T03:15:11;11.10;99.90
3053;DHT22;1536;51.098;6.414;2023-04-01T03:17:41;11.10;99.90
3053;DHT22;1536;51.098;6.414;2023-04-01T03:20:10;11.10;99.90
3053;DHT22;1536;51.098;6.414;2023-04-01T03:22:37;11.10;99.90
3053;DHT22;1536;51.098;6.414;2023-04-01T03:25:06;11.10;99.90
3053;DHT22;1536;51.098;6.414;2023-04-01T03:27:33;11.10;99.90
3053;DHT22;1536;51.098;6.414;2023-04-01T03:30:00;11.10;99.90
3053;DHT22;1536;51.098;6.414;2023-04-01T03:32:26;11.10;99.90
3053;DHT22;1536;51.098;6.414;2023-04-01T03:34:54;11.10;99.90
3053;DHT22;1536;51.098;6.414;2023-04-01T03:37:22;11.10;99.90
3053;DHT22;1536;51.098;6.414;2023-04-01T03:39:49;11.10;99.90
3053;DHT22;1536;51.098;6.414;2023-04-01T03:42:16;11.10;99.90
3053;DHT22;1536;51.098;6.414;2023-04-01T03:44:43;11.10;99.90
3053;DHT22;1536;51.098;6.414;2023-04-01T03:47:10;11.10;99.90
3053;DHT22;1536;51.098;6.414;2023-04-01T03:49:36;11.10;99.90
3053;DHT22;1536;51.098;6.414;2023-04-01T03:52:08;11.10;99.90
3053;DHT22;1536;51.098;6.414;2023-04-01T03:54:36;11.10;99.90
3053;DHT22;1536;51.098;6.414;2023-04-01T03:57:02;11.10;99.90
3053;DHT22;1536;51.098;6.414;2023-04-01T03:59:30;11.10;99.90
3053;DHT22;1536;51.098;6.414;2023-04-01T04:01:56;11.10;99.90
3053;DHT22;1536;51.098;6.414;2023-04-01T04:04:23;11.10;99.90
3053;DHT22;1536;51.098;6.414;2023-04-01T04:06:50;11.10;99.90
3053;DHT22;1536;51.098;6.414;2023-04-01T04:09:18;11.10;99.90
3053;DHT22;1536;51.098;6.414;2023-04-01T04:11:45;11.10;99.90
3053;DHT22;1536;51.098;6.414;2023-04-01T04:14:12;11.10;99.90
3053;DHT22;1536;51.098;6.414;2023-04-01T04:16:39;11.10;99.90
3053;DHT22;1536;51.098;6.414;2023-04-01T04:19:05;11.10;99.90
3053;DHT22;1536;51.098;6.414;2023-04-01T04:21:32;11.10;99.90
3053;DHT22;1536;51.098;6.414;2023-04-01T04:24:00;11.10;99.90
3053;DHT22;1536;51.098;6.414;2023-04-01T04:26:28;11.10;99.90
3053;DHT22;1536;51.098;6.414;2023-04-01T04:28:55;11.10;99.90
3053;DHT22;1536;51.098;6.414;2023-04-01T04:31:23;11.10;99.90
3053;DHT22;1536;51.098;6.414;2023-04-01T04:33:50;11.10;99.90
3053;DHT22;1536;51.098;6.414;2023-04-01T04:36:17;11.10;99.90
3053;DHT22;1536;51.098;6.414;2023-04-01T04:38:44;11.10;99.90
3053;DHT22;1536;51.098;6.414;2023-04-01T04:41:11;11.10;99.90
3053;DHT22;1536;51.098;6.414;2023-04-01T04:43:40;11.10;99.90
3053;DHT22;1536;51.098;6.414;2023-04-01T04:46:08;11.10;99.90
3053;DHT22;1536;51.098;6.414;2023-04-01T04:48:35;11.00;99.90
3053;DHT22;1536;51.098;6.414;2023-04-01T04:51:02;11.10;99.90
3053;DHT22;1536;51.098;6.414;2023-04-01T04:53:29;11.00;99.90
3053;DHT22;1536;51.098;6.414;2023-04-01T04:55:55;11.10;99.90
3053;DHT22;1536;51.098;6.414;2023-04-01T04:58:22;11.00;99.90
3053;DHT22;1536;51.098;6.414;2023-04-01T05:00:50;11.00;99.90
3053;DHT22;1536;51.098;6.414;2023-04-01T05:03:17;11.10;99.90
3053;DHT22;1536;51.098;6.414;2023-04-01T05:05:49;11.00;99.90
3053;DHT22;1536;51.098;6.414;2023-04-01T05:08:16;11.00;99.90
3053;DHT22;1536;51.098;6.414;2023-04-01T05:10:43;11.00;99.90
3053;DHT22;1536;51.098;6.414;2023-04-01T05:13:11;11.00;99.90
3053;DHT22;1536;51.098;6.414;2023-04-01T05:15:37;11.00;99.90
3053;DHT22;1536;51.098;6.414;2023-04-01T05:18:06;11.00;99.90
3053;DHT22;1536;51.098;6.414;2023-04-01T05:20:32;11.10;99.90
3053;DHT22;1536;51.098;6.414;2023-04-01T05:22:59;11.10;99.90
3053;DHT22;1536;51.098;6.414;2023-04-01T05:25:26;11.10;99.90
3053;DHT22;1536;51.098;6.414;2023-04-01T05:27:53;11.10;99.90
3053;DHT22;1536;51.098;6.414;2023-04-01T05:30:20;11.10;99.90
3053;DHT22;1536;51.098;6.414;2023-04-01T05:32:47;11.10;99.90
3053;DHT22;1536;51.098;6.414;2023-04-01T05:35:15;11.10;99.90
3053;DHT22;1536;51.098;6.414;2023-04-01T05:37:42;11.10;99.90
3053;DHT22;1536;51.098;6.414;2023-04-01T05:40:09;11.10;99.90
3053;DHT22;1536;51.098;6.414;2023-04-01T05:42:36;11.10;99.90
3053;DHT22;1536;51.098;6.414;2023-04-01T05:45:04;11.10;99.90
3053;DHT22;1536;51.098;6.414;2023-04-01T05:47:31;11.10;99.90
3053;DHT22;1536;51.098;6.414;2023-04-01T05:49:57;11.10;99.90
3053;DHT22;1536;51.098;6.414;2023-04-01T05:52:26;11.10;99.90
3053;DHT22;1536;51.098;6.414;2023-04-01T05:54:52;11.10;99.90
3053;DHT22;1536;51.098;6.414;2023-04-01T05:57:19;11.10;99.90
3053;DHT22;1536;51.098;6.414;2023-04-01T05:59:46;11.10;99.90
3053;DHT22;1536;51.098;6.414;2023-04-01T06:02:13;11.10;99.90
3053;DHT22;1536;51.098;6.414;2023-04-01T06:04:41;11.10;99.90
3053;DHT22;1536;51.098;6.414;2023-04-01T06:07:11;11.10;99.90
3053;DHT22;1536;51.098;6.414;2023-04-01T06:09:40;11.10;99.90
3053;DHT22;1536;51.098;6.414;2023-04-01T06:12:27;11.10;99.90
3053;DHT22;1536;51.098;6.414;2023-04-01T06:15:07;11.10;99.90
3053;DHT22;1536;51.098;6.414;2023-04-01T06:17:48;11.20;99.90
3053;DHT22;1536;51.098;6.414;2023-04-01T06:20:24;11.20;99.90
3053;DHT22;1536;51.098;6.414;2023-04-01T06:23:05;11.20;99.90
3053;DHT22;1536;51.098;6.414;2023-04-01T06:25:45;11.20;99.90
3053;DHT22;1536;51.098;6.414;2023-04-01T06:28:39;11.20;99.90
3053;DHT22;1536;51.098;6.414;2023-04-01T06:31:15;11.20;99.90
3053;DHT22;1536;51.098;6.414;2023-04-01T06:33:52;11.20;99.90
3053;DHT22;1536;51.098;6.414;2023-04-01T06:36:43;11.20;99.90
3053;DHT22;1536;51.098;6.414;2023-04-01T06:39:27;11.20;99.90
3053;DHT22;1536;51.098;6.414;2023-04-01T06:42:17;11.20;99.90
3053;DHT22;1536;51.098;6.414;2023-04-01T06:44:57;11.20;99.90
3053;DHT22;1536;51.098;6.414;2023-04-01T06:47:36;11.20;99.90
3053;DHT22;1536;51.098;6.414;2023-04-01T06:50:12;11.20;99.90
3053;DHT22;1536;51.098;6.414;2023-04-01T06:52:50;11.20;99.90
3053;DHT22;1536;51.098;6.414;2023-04-01T06:55:26;11.20;99.90
3053;DHT22;1536;51.098;6.414;2023-04-01T06:57:56;11.20;99.90
3053;DHT22;1536;51.098;6.414;2023-04-01T07:00:28;11.20;99.90
3053;DHT22;1536;51.098;6.414;2023-04-01T07:03:04;11.20;99.90
3053;DHT22;1536;51.098;6.414;2023-04-01T07:05:34;11.20;99.90
3053;DHT22;1536;51.098;6.414;2023-04-01T07:08:04;11.20;99.90
3053;DHT22;1536;51.098;6.414;2023-04-01T07:10:38;11.20;99.90
3053;DHT22;1536;51.098;6.414;2023-04-01T07:13:16;11.20;99.90
3053;DHT22;1536;51.098;6.414;2023-04-01T07:15:51;11.10;99.90
3053;DHT22;1536;51.098;6.414;2023-04-01T07:18:25;11.20;99.90
3053;DHT22;1536;51.098;6.414;2023-04-01T07:20:55;11.20;99.90
3053;DHT22;1536;51.098;6.414;2023-04-01T07:23:24;11.20;99.90
3053;DHT22;1536;51.098;6.414;2023-04-01T07:25:55;11.10;99.90
3053;DHT22;1536;51.098;6.414;2023-04-01T07:28:30;11.20;99.90
3053;DHT22;1536;51.098;6.414;2023-04-01T07:31:05;11.20;99.90
3053;DHT22;1536;51.098;6.414;2023-04-01T07:33:39;11.10;99.90
3053;DHT22;1536;51.098;6.414;2023-04-01T07:36:09;11.20;99.90
3053;DHT22;1536;51.098;6.414;2023-04-01T07:38:44;11.20;99.90
3053;DHT22;1536;51.098;6.414;2023-04-01T07:41:24;11.10;99.90
3053;DHT22;1536;51.098;6.414;2023-04-01T07:44:02;11.20;99.90
3053;DHT22;1536;51.098;6.414;2023-04-01T07:46:50;11.20;99.90
3053;DHT22;1536;51.098;6.414;2023-04-01T07:49:22;11.20;99.90
3053;DHT22;1536;51.098;6.414;2023-04-01T07:51:57;11.20;99.90
3053;DHT22;1536;51.098;6.414;2023-04-01T07:54:31;11.20;99.90
3053;DHT22;1536;51.098;6.414;2023-04-01T07:57:02;11.20;99.90
3053;DHT22;1536;51.098;6.414;2023-04-01T07:59:42;11.20;99.90
3053;DHT22;1536;51.098;6.414;2023-04-01T08:02:20;11.30;99.90
3053;DHT22;1536;51.098;6.414;2023-04-01T08:04:58;11.30;99.90
3053;DHT22;1536;51.098;6.414;2023-04-01T08:07:35;11.30;99.90
3053;DHT22;1536;51.098;6.414;2023-04-01T08:10:11;11.30;99.90
3053;DHT22;1536;51.098;6.414;2023-04-01T08:12:45;11.40;99.90
3053;DHT22;1536;51.098;6.414;2023-04-01T08:15:20;11.40;99.90
3053;DHT22;1536;51.098;6.414;2023-04-01T08:17:58;11.40;99.90
3053;DHT22;1536;51.098;6.414;2023-04-01T08:20:32;11.40;99.90
3053;DHT22;1536;51.098;6.414;2023-04-01T08:23:05;11.40;99.90
3053;DHT22;1536;51.098;6.414;2023-04-01T08:25:34;11.40;99.90
3053;DHT22;1536;51.098;6.414;2023-04-01T08:28:09;11.40;99.90
3053;DHT22;1536;51.098;6.414;2023-04-01T08:30:42;11.40;99.90
3053;DHT22;1536;51.098;6.414;2023-04-01T08:33:15;11.40;99.90
3053;DHT22;1536;51.098;6.414;2023-04-01T08:35:47;11.40;99.90
3053;DHT22;1536;51.098;6.414;2023-04-01T08:38:20;11.50;99.90
3053;DHT22;1536;51.098;6.414;2023-04-01T08:40:58;11.50;99.90
3053;DHT22;1536;51.098;6.414;2023-04-01T08:43:46;11.50;99.90
3053;DHT22;1536;51.098;6.414;2023-04-01T08:46:32;11.50;99.90
3053;DHT22;1536;51.098;6.414;2023-04-01T08:49:16;11.60;99.90
3053;DHT22;1536;51.098;6.414;2023-04-01T08:52:10;11.60;99.90
3053;DHT22;1536;51.098;6.414;2023-04-01T08:55:02;11.60;99.90
3053;DHT22;1536;51.098;6.414;2023-04-01T08:57:39;11.60;99.90
3053;DHT22;1536;51.098;6.414;2023-04-01T09:00:15;11.60;99.90
3053;DHT22;1536;51.098;6.414;2023-04-01T09:02:55;11.70;99.90
3053;DHT22;1536;51.098;6.414;2023-04-01T09:05:36;11.70;99.90
3053;DHT22;1536;51.098;6.414;2023-04-01T09:08:15;11.60;99.90
3053;DHT22;1536;51.098;6.414;2023-04-01T09:10:56;11.60;99.90
3053;DHT22;1536;51.098;6.414;2023-04-01T09:13:39;11.60;99.90
3053;DHT22;1536;51.098;6.414;2023-04-01T09:16:39;11.70;99.90
3053;DHT22;1536;51.098;6.414;2023-04-01T09:19:26;11.70;99.90
3053;DHT22;1536;51.098;6.414;2023-04-01T09:22:18;11.60;99.90
3053;DHT22;1536;51.098;6.414;2023-04-01T09:27:57;11.60;99.90
3053;DHT22;1536;51.098;6.414;2023-04-01T09:30:37;11.60;99.90
3053;DHT22;1536;51.098;6.414;2023-04-01T09:33:46;11.60;99.90
3053;DHT22;1536;51.098;6.414;2023-04-01T09:36:28;11.60;99.90
3053;DHT22;1536;51.098;6.414;2023-04-01T09:39:09;11.60;99.90
3053;DHT22;1536;51.098;6.414;2023-04-01T09:41:57;11.60;99.90
3053;DHT22;1536;51.098;6.414;2023-04-01T09:44:34;11.60;99.90
3053;DHT22;1536;51.098;6.414;2023-04-01T09:47:11;11.60;99.90
3053;DHT22;1536;51.098;6.414;2023-04-01T09:49:59;11.60;99.90
3053;DHT22;1536;51.098;6.414;2023-04-01T09:52:40;11.60;99.90
3053;DHT22;1536;51.098;6.414;2023-04-01T09:55:22;11.70;99.90
3053;DHT22;1536;51.098;6.414;2023-04-01T09:58:35;11.70;99.90
3053;DHT22;1536;51.098;6.414;2023-04-01T10:01:33;11.70;99.90
3053;DHT22;1536;51.098;6.414;2023-04-01T10:04:32;11.70;99.90
3053;DHT22;1536;51.098;6.414;2023-04-01T10:10:27;11.80;99.90
3053;DHT22;1536;51.098;6.414;2023-04-01T10:16:26;11.80;99.90
3053;DHT22;1536;51.098;6.414;2023-04-01T10:22:21;11.90;99.90
3053;DHT22;1536;51.098;6.414;2023-04-01T10:25:13;11.90;99.90
3053;DHT22;1536;51.098;6.414;2023-04-01T10:28:24;12.00;99.90
3053;DHT22;1536;51.098;6.414;2023-04-01T10:31:06;12.00;99.90
3053;DHT22;1536;51.098;6.414;2023-04-01T10:34:03;12.00;99.90
3053;DHT22;1536;51.098;6.414;2023-04-01T10:36:48;12.10;99.90
3053;DHT22;1536;51.098;6.414;2023-04-01T10:42:34;12.30;99.90
3053;DHT22;1536;51.098;6.414;2023-04-01T10:48:30;12.40;99.90
3053;DHT22;1536;51.098;6.414;2023-04-01T10:51:15;12.40;99.90
3053;DHT22;1536;51.098;6.414;2023-04-01T10:56:57;12.30;99.90
3053;DHT22;1536;51.098;6.414;2023-04-01T10:59:48;12.40;99.90
3053;DHT22;1536;51.098;6.414;2023-04-01T11:11:48;12.40;99.90
3053;DHT22;1536;51.098;6.414;2023-04-01T11:17:56;12.50;99.90
3053;DHT22;1536;51.098;6.414;2023-04-01T11:20:44;12.50;99.90
3053;DHT22;1536;51.098;6.414;2023-04-01T11:23:27;12.50;99.90
3053;DHT22;1536;51.098;6.414;2023-04-01T11:26:08;12.60;99.90
3053;DHT22;1536;51.098;6.414;2023-04-01T11:28:55;12.70;99.90
3053;DHT22;1536;51.098;6.414;2023-04-01T11:31:37;12.70;99.90
3053;DHT22;1536;51.098;6.414;2023-04-01T11:34:20;12.80;99.90
3053;DHT22;1536;51.098;6.414;2023-04-01T11:37:02;12.80;99.90
3053;DHT22;1536;51.098;6.414;2023-04-01T11:39:38;12.90;99.90
3053;DHT22;1536;51.098;6.414;2023-04-01T11:42:17;12.90;99.90
3053;DHT22;1536;51.098;6.414;2023-04-01T11:44:53;12.90;99.90
3053;DHT22;1536;51.098;6.414;2023-04-01T11:47:45;13.00;99.90
3053;DHT22;1536;51.098;6.414;2023-04-01T11:50:25;13.00;99.90
3053;DHT22;1536;51.098;6.414;2023-04-01T11:53:10;13.00;99.90
3053;DHT22;1536;51.098;6.414;2023-04-01T11:55:50;13.00;99.90
3053;DHT22;1536;51.098;6.414;2023-04-01T12:01:23;13.00;99.90
3053;DHT22;1536;51.098;6.414;2023-04-01T12:06:51;13.10;99.90
3053;DHT22;1536;51.098;6.414;2023-04-01T12:09:30;13.10;99.90
3053;DHT22;1536;51.098;6.414;2023-04-01T12:12:14;13.10;99.90
3053;DHT22;1536;51.098;6.414;2023-04-01T12:14:50;13.20;99.90
3053;DHT22;1536;51.098;6.414;2023-04-01T12:17:29;13.20;99.90
3053;DHT22;1536;51.098;6.414;2023-04-01T12:20:03;13.20;99.90
3053;DHT22;1536;51.098;6.414;2023-04-01T12:22:49;13.20;99.90
3053;DHT22;1536;51.098;6.414;2023-04-01T12:25:28;13.20;99.90
3053;DHT22;1536;51.098;6.414;2023-04-01T12:28:09;13.20;99.90
3053;DHT22;1536;51.098;6.414;2023-04-01T12:30:50;13.20;99.90
3053;DHT22;1536;51.098;6.414;2023-04-01T12:33:45;13.20;99.90
3053;DHT22;1536;51.098;6.414;2023-04-01T12:36:23;13.20;99.90
3053;DHT22;1536;51.098;6.414;2023-04-01T12:39:19;13.10;99.90
3053;DHT22;1536;51.098;6.414;2023-04-01T12:41:53;13.10;99.90
3053;DHT22;1536;51.098;6.414;2023-04-01T12:44:37;13.10;99.90
3053;DHT22;1536;51.098;6.414;2023-04-01T12:47:30;13.00;99.90
3053;DHT22;1536;51.098;6.414;2023-04-01T12:50:22;13.00;99.90
3053;DHT22;1536;51.098;6.414;2023-04-01T12:53:02;12.90;99.90
3053;DHT22;1536;51.098;6.414;2023-04-01T12:55:40;12.90;99.90
3053;DHT22;1536;51.098;6.414;2023-04-01T13:01:25;12.80;99.90
3053;DHT22;1536;51.098;6.414;2023-04-01T13:04:26;12.80;99.90
3053;DHT22;1536;51.098;6.414;2023-04-01T13:07:22;12.70;99.90
3053;DHT22;1536;51.098;6.414;2023-04-01T13:09:57;12.70;99.90
3053;DHT22;1536;51.098;6.414;2023-04-01T13:12:45;12.70;99.90
3053;DHT22;1536;51.098;6.414;2023-04-01T13:15:26;12.70;99.90
3053;DHT22;1536;51.098;6.414;2023-04-01T13:18:01;12.70;99.90
3053;DHT22;1536;51.098;6.414;2023-04-01T13:20:43;12.70;99.90
3053;DHT22;1536;51.098;6.414;2023-04-01T13:23:23;12.80;99.90
3053;DHT22;1536;51.098;6.414;2023-04-01T13:25:58;12.70;99.90
3053;DHT22;1536;51.098;6.414;2023-04-01T13:28:30;12.80;99.90
3053;DHT22;1536;51.098;6.414;2023-04-01T13:31:02;12.80;99.90
3053;DHT22;1536;51.098;6.414;2023-04-01T13:33:38;12.80;99.90
3053;DHT22;1536;51.098;6.414;2023-04-01T13:36:16;12.80;99.90
3053;DHT22;1536;51.098;6.414;2023-04-01T13:41:55;12.80;99.90
3053;DHT22;1536;51.098;6.414;2023-04-01T13:44:32;12.70;99.90
3053;DHT22;1536;51.098;6.414;2023-04-01T13:47:24;12.70;99.90
3053;DHT22;1536;51.098;6.414;2023-04-01T13:50:08;12.70;99.90
3053;DHT22;1536;51.098;6.414;2023-04-01T13:53:13;12.70;99.90
3053;DHT22;1536;51.098;6.414;2023-04-01T13:55:54;12.70;99.90
3053;DHT22;1536;51.098;6.414;2023-04-01T13:58:43;12.70;99.90
3053;DHT22;1536;51.098;6.414;2023-04-01T14:01:15;12.70;99.90
3053;DHT22;1536;51.098;6.414;2023-04-01T14:04:03;12.70;99.90
3053;DHT22;1536;51.098;6.414;2023-04-01T14:06:40;12.60;99.90
3053;DHT22;1536;51.098;6.414;2023-04-01T14:12:14;12.60;99.90
3053;DHT22;1536;51.098;6.414;2023-04-01T14:14:54;12.60;99.90
3053;DHT22;1536;51.098;6.414;2023-04-01T14:17:38;12.60;99.90
3053;DHT22;1536;51.098;6.414;2023-04-01T14:20:34;12.50;99.90
3053;DHT22;1536;51.098;6.414;2023-04-01T14:23:16;12.50;99.90
3053;DHT22;1536;51.098;6.414;2023-04-01T14:28:45;12.50;99.90
3053;DHT22;1536;51.098;6.414;2023-04-01T14:31:46;12.50;99.90
3053;DHT22;1536;51.098;6.414;2023-04-01T14:34:25;12.50;99.90
3053;DHT22;1536;51.098;6.414;2023-04-01T14:37:05;12.50;99.90
3053;DHT22;1536;51.098;6.414;2023-04-01T14:40:05;12.40;99.90
3053;DHT22;1536;51.098;6.414;2023-04-01T14:43:01;12.40;99.90
3053;DHT22;1536;51.098;6.414;2023-04-01T14:45:58;12.40;99.90
3053;DHT22;1536;51.098;6.414;2023-04-01T14:48:31;12.40;99.90
3053;DHT22;1536;51.098;6.414;2023-04-01T14:51:09;12.40;99.90
3053;DHT22;1536;51.098;6.414;2023-04-01T14:53:41;12.30;99.90
3053;DHT22;1536;51.098;6.414;2023-04-01T14:56:11;12.30;99.90
3053;DHT22;1536;51.098;6.414;2023-04-01T14:58:44;12.40;99.90
3053;DHT22;1536;51.098;6.414;2023-04-01T15:01:21;12.40;99.90
3053;DHT22;1536;51.098;6.414;2023-04-01T15:03:57;12.40;99.90
3053;DHT22;1536;51.098;6.414;2023-04-01T15:06:39;12.40;99.90
3053;DHT22;1536;51.098;6.414;2023-04-01T15:09:17;12.40;99.90
3053;DHT22;1536;51.098;6.414;2023-04-01T15:11:55;12.40;99.90
3053;DHT22;1536;51.098;6.414;2023-04-01T15:14:42;12.40;99.90
3053;DHT22;1536;51.098;6.414;2023-04-01T15:17:27;12.30;99.90
3053;DHT22;1536;51.098;6.414;2023-04-01T15:20:17;12.40;99.90
3053;DHT22;1536;51.098;6.414;2023-04-01T15:23:02;12.40;99.90
3053;DHT22;1536;51.098;6.414;2023-04-01T15:25:51;12.40;99.90
3053;DHT22;1536;51.098;6.414;2023-04-01T15:28:30;12.40;99.90
3053;DHT22;1536;51.098;6.414;2023-04-01T15:31:04;12.40;99.90
3053;DHT22;1536;51.098;6.414;2023-04-01T15:33:56;12.40;99.90
3053;DHT22;1536;51.098;6.414;2023-04-01T15:36:32;12.50;99.90
3053;DHT22;1536;51.098;6.414;2023-04-01T15:39:11;12.50;99.90
3053;DHT22;1536;51.098;6.414;2023-04-01T15:41:46;12.50;99.90
3053;DHT22;1536;51.098;6.414;2023-04-01T15:44:45;12.40;99.90
3053;DHT22;1536;51.098;6.414;2023-04-01T15:47:32;12.40;99.90
3053;DHT22;1536;51.098;6.414;2023-04-01T15:53:07;12.40;99.90
3053;DHT22;1536;51.098;6.414;2023-04-01T15:55:44;12.40;99.90
3053;DHT22;1536;51.098;6.414;2023-04-01T15:58:32;12.40;99.90
3053;DHT22;1536;51.098;6.414;2023-04-01T16:01:11;12.50;99.90
3053;DHT22;1536;51.098;6.414;2023-04-01T16:03:45;12.50;99.90
3053;DHT22;1536;51.098;6.414;2023-04-01T16:06:42;12.50;99.90
3053;DHT22;1536;51.098;6.414;2023-04-01T16:09:26;12.50;99.90
3053;DHT22;1536;51.098;6.414;2023-04-01T16:12:03;12.50;99.90
3053;DHT22;1536;51.098;6.414;2023-04-01T16:14:39;12.40;99.90
3053;DHT22;1536;51.098;6.414;2023-04-01T16:17:27;12.40;99.90
3053;DHT22;1536;51.098;6.414;2023-04-01T16:19:58;12.40;99.90
3053;DHT22;1536;51.098;6.414;2023-04-01T16:22:30;12.40;99.90
3053;DHT22;1536;51.098;6.414;2023-04-01T16:25:17;12.30;99.90
3053;DHT22;1536;51.098;6.414;2023-04-01T16:27:50;12.30;99.90
3053;DHT22;1536;51.098;6.414;2023-04-01T16:30:26;12.30;99.90
3053;DHT22;1536;51.098;6.414;2023-04-01T16:33:02;12.20;99.90
3053;DHT22;1536;51.098;6.414;2023-04-01T16:35:36;12.20;99.90
3053;DHT22;1536;51.098;6.414;2023-04-01T16:38:12;12.20;99.90
3053;DHT22;1536;51.098;6.414;2023-04-01T16:40:47;12.20;99.90
3053;DHT22;1536;51.098;6.414;2023-04-01T16:43:21;12.20;99.90
3053;DHT22;1536;51.098;6.414;2023-04-01T16:46:07;12.10;99.90
3053;DHT22;1536;51.098;6.414;2023-04-01T16:48:49;12.10;99.90
3053;DHT22;1536;51.098;6.414;2023-04-01T16:51:19;12.00;99.90
3053;DHT22;1536;51.098;6.414;2023-04-01T16:53:49;12.00;99.90
3053;DHT22;1536;51.098;6.414;2023-04-01T16:56:21;12.00;99.90
3053;DHT22;1536;51.098;6.414;2023-04-01T16:58:58;12.00;99.90
3053;DHT22;1536;51.098;6.414;2023-04-01T17:01:30;11.90;99.90
3053;DHT22;1536;51.098;6.414;2023-04-01T17:04:06;11.90;99.90
3053;DHT22;1536;51.098;6.414;2023-04-01T17:06:42;11.80;99.90
3053;DHT22;1536;51.098;6.414;2023-04-01T17:09:33;11.80;99.90
3053;DHT22;1536;51.098;6.414;2023-04-01T17:12:10;11.80;99.90
3053;DHT22;1536;51.098;6.414;2023-04-01T17:14:46;11.80;99.90
3053;DHT22;1536;51.098;6.414;2023-04-01T17:17:23;11.80;99.90
3053;DHT22;1536;51.098;6.414;2023-04-01T17:20:10;11.80;99.90
3053;DHT22;1536;51.098;6.414;2023-04-01T17:22:44;11.70;99.90
3053;DHT22;1536;51.098;6.414;2023-04-01T17:25:25;11.70;99.90
3053;DHT22;1536;51.098;6.414;2023-04-01T17:27:59;11.60;99.90
3053;DHT22;1536;51.098;6.414;2023-04-01T17:30:33;11.60;99.90
3053;DHT22;1536;51.098;6.414;2023-04-01T17:33:22;11.60;99.90
3053;DHT22;1536;51.098;6.414;2023-04-01T17:35:57;11.60;99.90
3053;DHT22;1536;51.098;6.414;2023-04-01T17:41:19;11.60;99.90
3053;DHT22;1536;51.098;6.414;2023-04-01T17:43:52;11.50;99.90
3053;DHT22;1536;51.098;6.414;2023-04-01T17:46:31;11.50;99.90
3053;DHT22;1536;51.098;6.414;2023-04-01T17:49:07;11.40;99.90
3053;DHT22;1536;51.098;6.414;2023-04-01T17:51:45;11.50;99.90
3053;DHT22;1536;51.098;6.414;2023-04-01T17:54:21;11.40;99.90
3053;DHT22;1536;51.098;6.414;2023-04-01T17:56:59;11.40;99.90
3053;DHT22;1536;51.098;6.414;2023-04-01T17:59:35;11.40;99.90